sensor_id;sensor_type;location;lat;lon;timestamp;pressure;altitude;pressure_sealevel;temperature;humidity
82171;BME280;71755;48.038;14.346;2023-07-31T00:01:11;97454.47;;;16.39;80.49
82171;BME280;71755;48.038;14.346;2023-07-31T00:03:38;97452.59;;;16.40;80.04
82171;BME280;71755;48.038;14.346;2023-07-31T00:06:03;97453.63;;;16.44;79.85
82171;BME280;71755;48.038;14.346;2023-07-31T00:08:29;97459.28;;;16.42;79.42
82171;BME280;71755;48.038;14.346;2023-07-31T00:10:55;97459.25;;;16.47;79.09
82171;BME280;71755;48.038;14.346;2023-07-31T00:13:21;97459.06;;;16.39;80.08
82171;BME280;71755;48.038;14.346;2023-07-31T00:15:47;97457.41;;;16.43;80.19
82171;BME280;71755;48.038;14.346;2023-07-31T00:18:13;97448.78;;;16.41;80.08
82171;BME280;71755;48.038;14.346;2023-07-31T00:20:38;97462.59;;;16.34;80.30
82171;BME280;71755;48.038;14.346;2023-07-31T00:23:04;97451.84;;;16.29;80.94
82171;BME280;71755;48.038;14.346;2023-07-31T00:25:30;97454.78;;;16.33;80.94
82171;BME280;71755;48.038;14.346;2023-07-31T00:27:56;97456.44;;;16.29;81.17
82171;BME280;71755;48.038;14.346;2023-07-31T00:30:22;97454.25;;;16.36;80.20
82171;BME280;71755;48.038;14.346;2023-07-31T00:32:51;97457.44;;;16.38;80.58
82171;BME280;71755;48.038;14.346;2023-07-31T00:35:17;97457.97;;;16.40;80.41
82171;BME280;71755;48.038;14.346;2023-07-31T00:37:43;97454.13;;;16.46;80.23
82171;BME280;71755;48.038;14.346;2023-07-31T00:40:09;97458.22;;;16.43;80.42
82171;BME280;71755;48.038;14.346;2023-07-31T00:42:35;97455.78;;;16.42;80.42
82171;BME280;71755;48.038;14.346;2023-07-31T00:45:00;97462.31;;;16.36;80.84
82171;BME280;71755;48.038;14.346;2023-07-31T00:47:26;97467.22;;;16.29;81.37
82171;BME280;71755;48.038;14.346;2023-07-31T00:49:52;97457.53;;;16.27;81.33
82171;BME280;71755;48.038;14.346;2023-07-31T00:52:18;97457.75;;;16.36;80.70
82171;BME280;71755;48.038;14.346;2023-07-31T00:54:45;97460.09;;;16.43;80.34
82171;BME280;71755;48.038;14.346;2023-07-31T00:57:10;97461.66;;;16.49;78.48
82171;BME280;71755;48.038;14.346;2023-07-31T00:59:36;97460.47;;;16.60;78.16
82171;BME280;71755;48.038;14.346;2023-07-31T01:02:03;97466.41;;;16.57;78.33
82171;BME280;71755;48.038;14.346;2023-07-31T01:04:29;97457.47;;;16.62;77.22
82171;BME280;71755;48.038;14.346;2023-07-31T01:07:14;97455.00;;;16.65;76.75
82171;BME280;71755;48.038;14.346;2023-07-31T01:09:52;97456.59;;;16.71;75.85
82171;BME280;71755;48.038;14.346;2023-07-31T01:12:24;97456.03;;;16.74;73.99
82171;BME280;71755;48.038;14.346;2023-07-31T01:15:09;97457.06;;;16.78;74.48
82171;BME280;71755;48.038;14.346;2023-07-31T01:17:43;97451.97;;;16.77;74.30
82171;BME280;71755;48.038;14.346;2023-07-31T01:20:22;97451.09;;;16.81;71.97
82171;BME280;71755;48.038;14.346;2023-07-31T01:31:11;97451.16;;;16.76;70.76
82171;BME280;71755;48.038;14.346;2023-07-31T01:33:39;97450.09;;;16.72;70.76
82171;BME280;71755;48.038;14.346;2023-07-31T01:36:10;97442.84;;;16.73;69.74
82171;BME280;71755;48.038;14.346;2023-07-31T01:38:36;97446.84;;;16.75;69.63
82171;BME280;71755;48.038;14.346;2023-07-31T01:41:03;97449.84;;;16.74;68.09
82171;BME280;71755;48.038;14.346;2023-07-31T01:43:30;97452.53;;;16.74;68.91
82171;BME280;71755;48.038;14.346;2023-07-31T01:45:55;97449.84;;;16.74;68.20
82171;BME280;71755;48.038;14.346;2023-07-31T01:48:21;97452.06;;;16.67;67.70
82171;BME280;71755;48.038;14.346;2023-07-31T01:50:47;97447.50;;;16.62;68.28
82171;BME280;71755;48.038;14.346;2023-07-31T01:53:12;97443.16;;;16.66;66.83
82171;BME280;71755;48.038;14.346;2023-07-31T01:55:39;97446.88;;;16.70;65.97
82171;BME280;71755;48.038;14.346;2023-07-31T01:58:04;97442.00;;;16.72;65.17
82171;BME280;71755;48.038;14.346;2023-07-31T02:00:31;97447.47;;;16.67;65.79
82171;BME280;71755;48.038;14.346;2023-07-31T02:02:57;97441.81;;;16.64;65.61
82171;BME280;71755;48.038;14.346;2023-07-31T02:05:22;97443.19;;;16.61;65.20
82171;BME280;71755;48.038;14.346;2023-07-31T02:07:48;97431.59;;;16.61;64.80
82171;BME280;71755;48.038;14.346;2023-07-31T02:10:14;97433.53;;;16.55;65.51
82171;BME280;71755;48.038;14.346;2023-07-31T02:12:40;97439.22;;;16.53;63.80
82171;BME280;71755;48.038;14.346;2023-07-31T02:15:07;97437.63;;;16.52;64.14
82171;BME280;71755;48.038;14.346;2023-07-31T02:17:33;97440.38;;;16.47;65.27
82171;BME280;71755;48.038;14.346;2023-07-31T02:19:58;97436.28;;;16.50;64.99
82171;BME280;71755;48.038;14.346;2023-07-31T02:22:24;97436.25;;;16.55;63.43
82171;BME280;71755;48.038;14.346;2023-07-31T02:24:50;97440.09;;;16.49;64.25
82171;BME280;71755;48.038;14.346;2023-07-31T02:27:16;97437.44;;;16.44;64.62
82171;BME280;71755;48.038;14.346;2023-07-31T02:29:42;97434.78;;;16.39;65.00
82171;BME280;71755;48.038;14.346;2023-07-31T02:32:08;97443.13;;;16.42;63.65
82171;BME280;71755;48.038;14.346;2023-07-31T02:34:34;97435.88;;;16.38;65.42
82171;BME280;71755;48.038;14.346;2023-07-31T02:37:00;97433.72;;;16.40;65.33
82171;BME280;71755;48.038;14.346;2023-07-31T02:39:27;97434.31;;;16.32;64.49
82171;BME280;71755;48.038;14.346;2023-07-31T02:41:53;97439.69;;;16.32;65.10
82171;BME280;71755;48.038;14.346;2023-07-31T02:44:19;97430.06;;;16.25;64.60
82171;BME280;71755;48.038;14.346;2023-07-31T02:46:46;97427.06;;;16.27;65.28
82171;BME280;71755;48.038;14.346;2023-07-31T02:49:12;97427.13;;;16.22;65.52
82171;BME280;71755;48.038;14.346;2023-07-31T02:51:38;97420.41;;;16.19;65.14
82171;BME280;71755;48.038;14.346;2023-07-31T02:54:04;97424.19;;;16.18;65.96
82171;BME280;71755;48.038;14.346;2023-07-31T02:56:30;97435.25;;;16.17;65.62
82171;BME280;71755;48.038;14.346;2023-07-31T02:58:56;97438.47;;;16.19;65.75
82171;BME280;71755;48.038;14.346;2023-07-31T03:01:22;97436.34;;;16.16;66.41
82171;BME280;71755;48.038;14.346;2023-07-31T03:03:48;97436.06;;;16.17;66.21
82171;BME280;71755;48.038;14.346;2023-07-31T03:06:14;97438.22;;;16.15;66.63
82171;BME280;71755;48.038;14.346;2023-07-31T03:08:39;97442.06;;;16.09;66.18
82171;BME280;71755;48.038;14.346;2023-07-31T03:11:05;97441.38;;;15.93;67.31
82171;BME280;71755;48.038;14.346;2023-07-31T03:13:32;97430.16;;;15.81;67.66
82171;BME280;71755;48.038;14.346;2023-07-31T03:15:58;97433.69;;;15.77;68.10
82171;BME280;71755;48.038;14.346;2023-07-31T03:18:23;97426.63;;;15.86;67.76
82171;BME280;71755;48.038;14.346;2023-07-31T03:20:50;97433.59;;;15.87;67.45
82171;BME280;71755;48.038;14.346;2023-07-31T03:23:15;97427.94;;;15.88;67.66
82171;BME280;71755;48.038;14.346;2023-07-31T03:25:58;97432.75;;;15.91;68.64
82171;BME280;71755;48.038;14.346;2023-07-31T03:28:25;97439.56;;;15.84;67.50
82171;BME280;71755;48.038;14.346;2023-07-31T03:30:52;97440.13;;;15.81;67.60
82171;BME280;71755;48.038;14.346;2023-07-31T03:33:18;97437.94;;;15.83;67.54
82171;BME280;71755;48.038;14.346;2023-07-31T03:35:45;97445.28;;;15.77;67.05
82171;BME280;71755;48.038;14.346;2023-07-31T03:38:11;97441.34;;;15.59;67.53
82171;BME280;71755;48.038;14.346;2023-07-31T03:40:37;97443.00;;;15.45;68.95
82171;BME280;71755;48.038;14.346;2023-07-31T03:43:03;97439.31;;;15.36;69.33
82171;BME280;71755;48.038;14.346;2023-07-31T03:45:29;97446.84;;;15.34;69.61
82171;BME280;71755;48.038;14.346;2023-07-31T03:47:54;97449.50;;;15.39;69.39
82171;BME280;71755;48.038;14.346;2023-07-31T03:50:20;97445.22;;;15.38;68.77
82171;BME280;71755;48.038;14.346;2023-07-31T03:52:47;97449.53;;;15.34;68.96
82171;BME280;71755;48.038;14.346;2023-07-31T03:55:13;97452.78;;;15.31;69.25
82171;BME280;71755;48.038;14.346;2023-07-31T03:57:40;97452.75;;;15.36;69.17
82171;BME280;71755;48.038;14.346;2023-07-31T04:00:06;97447.91;;;15.38;68.75
82171;BME280;71755;48.038;14.346;2023-07-31T04:02:33;97449.50;;;15.39;68.68
82171;BME280;71755;48.038;14.346;2023-07-31T04:04:59;97449.00;;;15.37;68.71
82171;BME280;71755;48.038;14.346;2023-07-31T04:07:24;97450.63;;;15.33;69.05
82171;BME280;71755;48.038;14.346;2023-07-31T04:09:50;97449.56;;;15.29;69.09
82171;BME280;71755;48.038;14.346;2023-07-31T04:12:16;97440.41;;;15.30;69.96
82171;BME280;71755;48.038;14.346;2023-07-31T04:14:42;97437.41;;;15.37;70.28
82171;BME280;71755;48.038;14.346;2023-07-31T04:17:08;97435.25;;;15.39;71.14
82171;BME280;71755;48.038;14.346;2023-07-31T04:19:35;97434.47;;;15.33;70.21
82171;BME280;71755;48.038;14.346;2023-07-31T04:22:02;97442.06;;;15.26;69.51
82171;BME280;71755;48.038;14.346;2023-07-31T04:24:28;97439.41;;;15.16;70.17
82171;BME280;71755;48.038;14.346;2023-07-31T04:26:54;97436.69;;;15.16;70.94
82171;BME280;71755;48.038;14.346;2023-07-31T04:29:20;97432.41;;;15.15;70.14
82171;BME280;71755;48.038;14.346;2023-07-31T04:31:47;97433.34;;;14.90;71.32
82171;BME280;71755;48.038;14.346;2023-07-31T04:34:12;97440.09;;;14.72;72.48
82171;BME280;71755;48.038;14.346;2023-07-31T04:36:39;97437.97;;;14.64;72.60
82171;BME280;71755;48.038;14.346;2023-07-31T04:39:05;97434.75;;;14.67;72.02
82171;BME280;71755;48.038;14.346;2023-07-31T04:41:31;97430.75;;;14.59;72.62
82171;BME280;71755;48.038;14.346;2023-07-31T04:43:57;97442.84;;;14.47;73.38
82171;BME280;71755;48.038;14.346;2023-07-31T04:46:23;97440.16;;;14.31;74.26
82171;BME280;71755;48.038;14.346;2023-07-31T04:48:48;97439.34;;;14.31;74.68
82171;BME280;71755;48.038;14.346;2023-07-31T04:51:15;97437.75;;;14.30;74.99
82171;BME280;71755;48.038;14.346;2023-07-31T04:53:41;97446.63;;;14.30;75.15
82171;BME280;71755;48.038;14.346;2023-07-31T04:56:13;97448.22;;;14.31;75.53
82171;BME280;71755;48.038;14.346;2023-07-31T04:58:41;97443.41;;;14.23;75.95
82171;BME280;71755;48.038;14.346;2023-07-31T05:01:07;97445.81;;;14.30;75.55
82171;BME280;71755;48.038;14.346;2023-07-31T05:03:34;97454.69;;;14.30;76.03
82171;BME280;71755;48.038;14.346;2023-07-31T05:05:59;97448.50;;;14.30;76.24
82171;BME280;71755;48.038;14.346;2023-07-31T05:08:25;97441.22;;;14.35;76.28
82171;BME280;71755;48.038;14.346;2023-07-31T05:10:50;97454.66;;;14.40;76.11
82171;BME280;71755;48.038;14.346;2023-07-31T05:13:16;97453.84;;;14.35;77.24
82171;BME280;71755;48.038;14.346;2023-07-31T05:15:42;97454.13;;;14.38;77.34
82171;BME280;71755;48.038;14.346;2023-07-31T05:18:08;97457.63;;;14.49;77.67
82171;BME280;71755;48.038;14.346;2023-07-31T05:20:34;97452.78;;;14.56;77.54
82171;BME280;71755;48.038;14.346;2023-07-31T05:23:00;97457.34;;;14.61;77.88
82171;BME280;71755;48.038;14.346;2023-07-31T05:25:25;97455.13;;;14.78;78.37
82171;BME280;71755;48.038;14.346;2023-07-31T05:27:51;97452.44;;;14.83;77.32
82171;BME280;71755;48.038;14.346;2023-07-31T05:30:17;97455.13;;;14.88;77.09
82171;BME280;71755;48.038;14.346;2023-07-31T05:32:42;97450.28;;;14.90;76.41
82171;BME280;71755;48.038;14.346;2023-07-31T05:35:08;97452.72;;;14.87;75.50
82171;BME280;71755;48.038;14.346;2023-07-31T05:37:34;97450.81;;;14.92;75.47
82171;BME280;71755;48.038;14.346;2023-07-31T05:40:00;97450.75;;;15.02;75.25
82171;BME280;71755;48.038;14.346;2023-07-31T05:42:25;97451.53;;;15.08;75.50
82171;BME280;71755;48.038;14.346;2023-07-31T05:44:52;97450.69;;;15.18;75.04
82171;BME280;71755;48.038;14.346;2023-07-31T05:47:18;97450.38;;;15.29;75.86
82171;BME280;71755;48.038;14.346;2023-07-31T05:49:44;97442.53;;;15.38;75.00
82171;BME280;71755;48.038;14.346;2023-07-31T05:52:10;97441.72;;;15.38;75.11
82171;BME280;71755;48.038;14.346;2023-07-31T05:54:36;97440.91;;;15.37;75.23
82171;BME280;71755;48.038;14.346;2023-07-31T05:57:01;97443.66;;;15.27;75.78
82171;BME280;71755;48.038;14.346;2023-07-31T05:59:27;97444.19;;;15.29;75.72
82171;BME280;71755;48.038;14.346;2023-07-31T06:01:53;97443.66;;;15.27;75.57
82171;BME280;71755;48.038;14.346;2023-07-31T06:04:19;97442.84;;;15.31;75.43
82171;BME280;71755;48.038;14.346;2023-07-31T06:06:44;97434.47;;;15.33;74.95
82171;BME280;71755;48.038;14.346;2023-07-31T06:09:10;97432.84;;;15.37;74.57
82171;BME280;71755;48.038;14.346;2023-07-31T06:11:37;97431.44;;;15.45;74.23
82171;BME280;71755;48.038;14.346;2023-07-31T06:14:02;97436.22;;;15.58;74.74
82171;BME280;71755;48.038;14.346;2023-07-31T06:16:28;97432.13;;;15.71;74.57
82171;BME280;71755;48.038;14.346;2023-07-31T06:18:53;97441.22;;;15.80;72.61
82171;BME280;71755;48.038;14.346;2023-07-31T06:21:19;97428.47;;;15.90;70.48
82171;BME280;71755;48.038;14.346;2023-07-31T06:23:45;97421.59;;;16.08;72.49
82171;BME280;71755;48.038;14.346;2023-07-31T06:26:11;97426.78;;;16.29;72.26
82171;BME280;71755;48.038;14.346;2023-07-31T06:28:37;97428.25;;;16.45;72.05
82171;BME280;71755;48.038;14.346;2023-07-31T06:31:03;97429.19;;;16.59;70.35
82171;BME280;71755;48.038;14.346;2023-07-31T06:33:29;97422.38;;;16.67;67.14
82171;BME280;71755;48.038;14.346;2023-07-31T06:35:54;97426.25;;;16.84;69.60
82171;BME280;71755;48.038;14.346;2023-07-31T06:38:25;97428.97;;;17.03;69.11
82171;BME280;71755;48.038;14.346;2023-07-31T06:40:51;97428.66;;;17.10;66.87
82171;BME280;71755;48.038;14.346;2023-07-31T06:43:17;97427.41;;;17.21;66.04
82171;BME280;71755;48.038;14.346;2023-07-31T06:45:43;97425.97;;;17.29;64.34
82171;BME280;71755;48.038;14.346;2023-07-31T06:48:09;97420.03;;;17.45;64.86
82171;BME280;71755;48.038;14.346;2023-07-31T06:50:35;97426.00;;;17.47;62.08
82171;BME280;71755;48.038;14.346;2023-07-31T06:53:01;97425.75;;;17.63;65.41
82171;BME280;71755;48.038;14.346;2023-07-31T06:55:27;97421.53;;;17.75;64.34
82171;BME280;71755;48.038;14.346;2023-07-31T06:57:54;97420.44;;;17.95;62.05
82171;BME280;71755;48.038;14.346;2023-07-31T07:00:22;97415.44;;;18.02;61.20
82171;BME280;71755;48.038;14.346;2023-07-31T07:02:49;97421.25;;;18.09;60.78
82171;BME280;71755;48.038;14.346;2023-07-31T07:05:16;97408.00;;;18.27;59.95
82171;BME280;71755;48.038;14.346;2023-07-31T07:07:43;97406.22;;;18.36;56.05
82171;BME280;71755;48.038;14.346;2023-07-31T07:10:09;97408.81;;;18.55;59.45
82171;BME280;71755;48.038;14.346;2023-07-31T07:12:35;97407.66;;;18.61;54.80
82171;BME280;71755;48.038;14.346;2023-07-31T07:15:01;97417.09;;;18.63;55.84
82171;BME280;71755;48.038;14.346;2023-07-31T07:17:29;97400.06;;;18.63;55.85
82171;BME280;71755;48.038;14.346;2023-07-31T07:19:58;97403.47;;;18.68;56.27
82171;BME280;71755;48.038;14.346;2023-07-31T07:22:24;97397.66;;;18.75;56.22
82171;BME280;71755;48.038;14.346;2023-07-31T07:24:51;97389.44;;;18.80;56.19
82171;BME280;71755;48.038;14.346;2023-07-31T07:27:17;97393.84;;;18.90;54.68
82171;BME280;71755;48.038;14.346;2023-07-31T07:29:43;97394.63;;;19.04;53.85
82171;BME280;71755;48.038;14.346;2023-07-31T07:32:08;97388.50;;;19.12;54.87
82171;BME280;71755;48.038;14.346;2023-07-31T07:34:34;97389.28;;;19.26;54.60
82171;BME280;71755;48.038;14.346;2023-07-31T07:37:00;97381.75;;;19.23;53.68
82171;BME280;71755;48.038;14.346;2023-07-31T07:39:26;97385.56;;;19.22;52.82
82171;BME280;71755;48.038;14.346;2023-07-31T07:41:51;97385.56;;;19.22;54.50
82171;BME280;71755;48.038;14.346;2023-07-31T07:44:18;97380.31;;;19.40;54.64
82171;BME280;71755;48.038;14.346;2023-07-31T07:46:45;97387.53;;;19.44;52.37
82171;BME280;71755;48.038;14.346;2023-07-31T07:49:10;97382.53;;;19.38;53.27
82171;BME280;71755;48.038;14.346;2023-07-31T07:51:36;97387.41;;;19.49;53.96
82171;BME280;71755;48.038;14.346;2023-07-31T07:54:02;97386.44;;;19.45;52.73
82171;BME280;71755;48.038;14.346;2023-07-31T07:56:28;97387.28;;;19.18;53.56
82171;BME280;71755;48.038;14.346;2023-07-31T07:58:54;97380.00;;;19.05;53.23
82171;BME280;71755;48.038;14.346;2023-07-31T08:01:20;97378.91;;;19.06;53.64
82171;BME280;71755;48.038;14.346;2023-07-31T08:03:47;97374.66;;;19.14;53.25
82171;BME280;71755;48.038;14.346;2023-07-31T08:06:14;97382.88;;;19.22;52.73
82171;BME280;71755;48.038;14.346;2023-07-31T08:08:40;97378.31;;;19.45;55.52
82171;BME280;71755;48.038;14.346;2023-07-31T08:11:06;97373.06;;;19.85;55.80
82171;BME280;71755;48.038;14.346;2023-07-31T08:13:32;97364.97;;;20.16;55.12
82171;BME280;71755;48.038;14.346;2023-07-31T08:15:59;97361.59;;;20.41;51.80
82171;BME280;71755;48.038;14.346;2023-07-31T08:18:24;97362.47;;;20.59;52.33
82171;BME280;71755;48.038;14.346;2023-07-31T08:20:50;97358.69;;;20.77;51.45
82171;BME280;71755;48.038;14.346;2023-07-31T08:23:16;97354.00;;;20.52;49.11
82171;BME280;71755;48.038;14.346;2023-07-31T08:25:42;97355.56;;;20.22;51.21
82171;BME280;71755;48.038;14.346;2023-07-31T08:28:07;97354.00;;;20.29;52.04
82171;BME280;71755;48.038;14.346;2023-07-31T08:30:33;97364.91;;;20.38;53.25
82171;BME280;71755;48.038;14.346;2023-07-31T08:33:00;97358.19;;;20.36;51.26
82171;BME280;71755;48.038;14.346;2023-07-31T08:35:26;97353.94;;;20.43;52.58
82171;BME280;71755;48.038;14.346;2023-07-31T08:37:54;97354.75;;;20.44;51.33
82171;BME280;71755;48.038;14.346;2023-07-31T08:40:20;97349.63;;;20.42;52.26
82171;BME280;71755;48.038;14.346;2023-07-31T08:42:52;97361.19;;;20.56;53.98
82171;BME280;71755;48.038;14.346;2023-07-31T08:45:19;97351.94;;;20.57;52.96
82171;BME280;71755;48.038;14.346;2023-07-31T08:47:47;97359.72;;;20.50;50.49
82171;BME280;71755;48.038;14.346;2023-07-31T08:50:14;97362.03;;;20.66;52.23
82171;BME280;71755;48.038;14.346;2023-07-31T08:52:40;97353.22;;;20.60;54.05
82171;BME280;71755;48.038;14.346;2023-07-31T08:55:07;97357.66;;;20.47;53.05
82171;BME280;71755;48.038;14.346;2023-07-31T08:57:38;97348.03;;;20.41;53.97
82171;BME280;71755;48.038;14.346;2023-07-31T09:00:05;97351.75;;;20.45;52.15
82171;BME280;71755;48.038;14.346;2023-07-31T09:02:40;97343.28;;;20.47;52.49
82171;BME280;71755;48.038;14.346;2023-07-31T09:05:10;97340.47;;;20.38;50.51
82171;BME280;71755;48.038;14.346;2023-07-31T09:07:37;97343.09;;;20.43;52.44
82171;BME280;71755;48.038;14.346;2023-07-31T09:10:04;97340.47;;;20.38;52.46
82171;BME280;71755;48.038;14.346;2023-07-31T09:12:31;97337.09;;;20.33;51.42
82171;BME280;71755;48.038;14.346;2023-07-31T09:14:57;97323.38;;;20.29;53.46
82171;BME280;71755;48.038;14.346;2023-07-31T09:17:31;97320.38;;;20.39;53.77
82171;BME280;71755;48.038;14.346;2023-07-31T09:22:39;97317.19;;;20.37;52.44
82171;BME280;71755;48.038;14.346;2023-07-31T09:25:25;97328.44;;;20.44;51.29
82171;BME280;71755;48.038;14.346;2023-07-31T09:27:58;97320.63;;;20.51;52.11
82171;BME280;71755;48.038;14.346;2023-07-31T09:30:25;97309.47;;;20.53;52.34
82171;BME280;71755;48.038;14.346;2023-07-31T09:33:02;97310.75;;;20.55;51.29
82171;BME280;71755;48.038;14.346;2023-07-31T09:35:31;97302.47;;;20.69;51.32
82171;BME280;71755;48.038;14.346;2023-07-31T09:38:08;97301.66;;;20.69;51.76
82171;BME280;71755;48.038;14.346;2023-07-31T09:40:38;97300.41;;;20.75;51.55
82171;BME280;71755;48.038;14.346;2023-07-31T09:43:26;97296.28;;;20.95;52.43
82171;BME280;71755;48.038;14.346;2023-07-31T09:45:57;97300.59;;;20.87;52.41
82171;BME280;71755;48.038;14.346;2023-07-31T09:48:24;97297.22;;;20.73;50.63
82171;BME280;71755;48.038;14.346;2023-07-31T09:50:53;97305.97;;;20.61;52.31
82171;BME280;71755;48.038;14.346;2023-07-31T09:53:28;97299.91;;;20.64;50.06
82171;BME280;71755;48.038;14.346;2023-07-31T09:56:01;97293.00;;;20.49;50.70
82171;BME280;71755;48.038;14.346;2023-07-31T09:58:29;97294.63;;;20.59;50.70
82171;BME280;71755;48.038;14.346;2023-07-31T10:00:58;97292.41;;;20.70;51.75
82171;BME280;71755;48.038;14.346;2023-07-31T10:03:29;97284.31;;;20.87;50.23
82171;BME280;71755;48.038;14.346;2023-07-31T10:05:57;97280.63;;;20.83;51.37
82171;BME280;71755;48.038;14.346;2023-07-31T10:08:28;97280.66;;;21.00;52.11
82171;BME280;71755;48.038;14.346;2023-07-31T10:10:58;97275.22;;;21.00;51.42
82171;BME280;71755;48.038;14.346;2023-07-31T10:13:24;97272.66;;;20.95;49.34
82171;BME280;71755;48.038;14.346;2023-07-31T10:15:52;97272.34;;;21.05;52.89
82171;BME280;71755;48.038;14.346;2023-07-31T10:18:18;97266.28;;;21.34;51.87
82171;BME280;71755;48.038;14.346;2023-07-31T10:20:46;97262.63;;;22.03;50.26
82171;BME280;71755;48.038;14.346;2023-07-31T10:23:13;97256.97;;;22.55;50.48
82171;BME280;71755;48.038;14.346;2023-07-31T10:25:40;97252.03;;;22.77;45.85
82171;BME280;71755;48.038;14.346;2023-07-31T10:28:08;97252.41;;;23.18;47.73
82171;BME280;71755;48.038;14.346;2023-07-31T10:30:36;97246.28;;;23.42;48.15
82171;BME280;71755;48.038;14.346;2023-07-31T10:33:04;97233.31;;;23.72;49.13
82171;BME280;71755;48.038;14.346;2023-07-31T10:35:31;97234.84;;;23.81;46.25
82171;BME280;71755;48.038;14.346;2023-07-31T10:38:10;97244.66;;;23.07;50.04
82171;BME280;71755;48.038;14.346;2023-07-31T10:40:37;97239.91;;;23.17;47.82
82171;BME280;71755;48.038;14.346;2023-07-31T10:43:03;97243.88;;;22.77;47.40
82171;BME280;71755;48.038;14.346;2023-07-31T10:45:33;97229.81;;;22.96;46.59
82171;BME280;71755;48.038;14.346;2023-07-31T10:50:33;97220.84;;;22.96;47.32
82171;BME280;71755;48.038;14.346;2023-07-31T10:53:02;97217.81;;;23.30;48.15
82171;BME280;71755;48.038;14.346;2023-07-31T10:55:42;97217.44;;;23.20;47.14
82171;BME280;71755;48.038;14.346;2023-07-31T10:58:13;97211.59;;;23.75;45.86
82171;BME280;71755;48.038;14.346;2023-07-31T11:00:44;97206.88;;;23.18;48.15
82171;BME280;71755;48.038;14.346;2023-07-31T11:03:13;97203.28;;;23.59;49.48
82171;BME280;71755;48.038;14.346;2023-07-31T11:08:25;97192.91;;;23.98;46.53
82171;BME280;71755;48.038;14.346;2023-07-31T11:11:05;97192.22;;;24.01;43.80
82171;BME280;71755;48.038;14.346;2023-07-31T11:13:45;97179.38;;;24.38;44.90
82171;BME280;71755;48.038;14.346;2023-07-31T11:16:12;97181.28;;;24.62;43.71
82171;BME280;71755;48.038;14.346;2023-07-31T11:18:41;97176.66;;;24.26;44.93
82171;BME280;71755;48.038;14.346;2023-07-31T11:21:08;97182.25;;;23.27;45.62
82171;BME280;71755;48.038;14.346;2023-07-31T11:23:37;97183.16;;;22.77;45.79
82171;BME280;71755;48.038;14.346;2023-07-31T11:26:05;97178.09;;;22.67;46.05
82171;BME280;71755;48.038;14.346;2023-07-31T11:28:32;97184.50;;;22.71;47.09
82171;BME280;71755;48.038;14.346;2023-07-31T11:31:00;97181.56;;;22.76;47.94
82171;BME280;71755;48.038;14.346;2023-07-31T11:33:26;97186.84;;;22.31;47.99
82171;BME280;71755;48.038;14.346;2023-07-31T11:35:53;97180.16;;;22.49;49.29
82171;BME280;71755;48.038;14.346;2023-07-31T11:38:27;97178.50;;;23.19;48.54
82171;BME280;71755;48.038;14.346;2023-07-31T11:40:55;97165.06;;;23.47;45.39
82171;BME280;71755;48.038;14.346;2023-07-31T11:43:21;97163.75;;;23.32;49.85
82171;BME280;71755;48.038;14.346;2023-07-31T11:45:50;97160.00;;;23.58;46.88
82171;BME280;71755;48.038;14.346;2023-07-31T11:48:25;97153.91;;;24.22;46.55
82171;BME280;71755;48.038;14.346;2023-07-31T11:50:54;97152.63;;;24.44;45.57
82171;BME280;71755;48.038;14.346;2023-07-31T11:53:36;97153.78;;;24.83;43.52
82171;BME280;71755;48.038;14.346;2023-07-31T11:56:05;97147.50;;;24.94;43.39
82171;BME280;71755;48.038;14.346;2023-07-31T11:58:34;97143.50;;;24.52;42.33
82171;BME280;71755;48.038;14.346;2023-07-31T12:01:01;97134.34;;;24.20;45.15
82171;BME280;71755;48.038;14.346;2023-07-31T12:03:29;97137.28;;;24.02;45.03
82171;BME280;71755;48.038;14.346;2023-07-31T12:05:55;97144.91;;;23.73;45.52
82171;BME280;71755;48.038;14.346;2023-07-31T12:08:23;97136.94;;;23.55;45.33
82171;BME280;71755;48.038;14.346;2023-07-31T12:10:54;97142.44;;;23.80;47.74
82171;BME280;71755;48.038;14.346;2023-07-31T12:13:22;97128.97;;;23.75;47.70
82171;BME280;71755;48.038;14.346;2023-07-31T12:15:49;97131.72;;;23.99;44.98
82171;BME280;71755;48.038;14.346;2023-07-31T12:18:19;97132.88;;;23.98;48.62
82171;BME280;71755;48.038;14.346;2023-07-31T12:20:47;97120.19;;;23.45;45.06
82171;BME280;71755;48.038;14.346;2023-07-31T12:23:19;97119.75;;;23.43;46.20
82171;BME280;71755;48.038;14.346;2023-07-31T12:26:10;97115.72;;;23.28;46.43
82171;BME280;71755;48.038;14.346;2023-07-31T12:31:18;97100.59;;;23.88;47.22
82171;BME280;71755;48.038;14.346;2023-07-31T12:33:46;97088.44;;;24.50;47.37
82171;BME280;71755;48.038;14.346;2023-07-31T12:36:16;97085.22;;;24.88;45.78
82171;BME280;71755;48.038;14.346;2023-07-31T12:38:42;97081.53;;;25.08;43.80
82171;BME280;71755;48.038;14.346;2023-07-31T12:41:08;97082.88;;;25.62;42.67
82171;BME280;71755;48.038;14.346;2023-07-31T12:43:35;97075.56;;;25.66;41.32
82171;BME280;71755;48.038;14.346;2023-07-31T12:46:02;97074.56;;;24.83;41.13
82171;BME280;71755;48.038;14.346;2023-07-31T12:48:29;97073.03;;;25.73;42.65
82171;BME280;71755;48.038;14.346;2023-07-31T12:50:55;97069.38;;;25.37;43.73
82171;BME280;71755;48.038;14.346;2023-07-31T12:53:21;97070.16;;;25.22;44.14
82171;BME280;71755;48.038;14.346;2023-07-31T12:55:47;97056.47;;;24.78;42.43
82171;BME280;71755;48.038;14.346;2023-07-31T12:58:13;97068.66;;;24.81;43.12
82171;BME280;71755;48.038;14.346;2023-07-31T13:00:39;97059.03;;;25.15;43.30
82171;BME280;71755;48.038;14.346;2023-07-31T13:03:05;97057.63;;;25.05;39.62
82171;BME280;71755;48.038;14.346;2023-07-31T13:05:31;97062.00;;;24.66;45.63
82171;BME280;71755;48.038;14.346;2023-07-31T13:07:56;97061.28;;;25.41;43.34
82171;BME280;71755;48.038;14.346;2023-07-31T13:10:24;97049.38;;;25.33;43.06